createdAt,value
2018-09-12T00:00:30.747Z,89.97
2018-09-12T00:02:59.864Z,89.93
2018-09-12T00:05:28.990Z,90.36
2018-09-12T00:07:58.118Z,90.32
2018-09-12T00:10:27.249Z,89.87
2018-09-12T00:12:56.373Z,90.23
2018-09-12T00:15:25.694Z,90.50
2018-09-12T00:17:54.832Z,90.83
2018-09-12T00:20:23.997Z,91.21
2018-09-12T00:22:53.150Z,91.30
2018-09-12T00:25:22.258Z,91.07
2018-09-12T00:27:51.398Z,91.79
2018-09-12T00:30:20.572Z,91.64
2018-09-12T00:32:49.696Z,92.19
2018-09-12T00:35:18.850Z,92.57
2018-09-12T00:37:48.025Z,92.35
2018-09-12T00:40:17.378Z,92.47
2018-09-12T00:42:46.541Z,92.64
2018-09-12T00:45:15.699Z,93.37
2018-09-12T00:47:44.822Z,92.99
2018-09-12T00:50:13.946Z,93.22
2018-09-12T00:52:43.082Z,92.97
2018-09-12T00:55:12.362Z,93.42
2018-09-12T00:57:41.562Z,93.04
2018-09-12T01:00:10.945Z,93.03
2018-09-12T01:02:40.126Z,93.72
2018-09-12T01:05:09.496Z,93.54
2018-09-12T01:07:38.782Z,93.89
2018-09-12T01:10:07.952Z,93.68
2018-09-12T01:12:37.101Z,93.85
2018-09-12T01:15:08.001Z,94.09
2018-09-12T01:17:37.140Z,94.43
2018-09-12T01:20:06.336Z,94.44
2018-09-12T01:22:35.487Z,95.13
2018-09-12T01:25:04.709Z,95.10
2018-09-12T01:27:33.876Z,94.74
2018-09-12T01:30:03.316Z,95.58
2018-09-12T01:32:32.692Z,95.79
2018-09-12T01:35:01.853Z,95.97
2018-09-12T01:37:31.000Z,95.88
2018-09-12T01:40:00.130Z,95.90
2018-09-12T01:42:29.264Z,95.84
2018-09-12T01:44:58.507Z,96.25
2018-09-12T01:47:27.624Z,96.50
2018-09-12T01:49:56.773Z,96.82
2018-09-12T01:52:25.926Z,96.72
2018-09-12T01:54:55.076Z,97.07
2018-09-12T01:57:24.262Z,97.47
2018-09-12T01:59:53.470Z,97.30
2018-09-12T02:02:22.637Z,97.07
2018-09-12T02:04:51.759Z,97.36
2018-09-12T02:07:21.027Z,97.94
2018-09-12T02:09:50.193Z,97.41
2018-09-12T02:12:19.331Z,98.20
2018-09-12T02:14:49.255Z,98.85
2018-09-12T02:17:18.505Z,100.00
2018-09-12T02:19:47.616Z,100.00
2018-09-12T02:22:16.765Z,100.00
2018-09-12T02:24:45.900Z,100.00
2018-09-12T02:27:15.024Z,99.83
2018-09-12T02:29:44.201Z,100.00
2018-09-12T02:32:13.334Z,99.69
2018-09-12T02:34:42.521Z,99.36
2018-09-12T02:37:12.385Z,99.50
2018-09-12T02:39:41.929Z,99.48
2018-09-12T02:42:11.118Z,99.58
2018-09-12T02:44:40.328Z,99.61
2018-09-12T02:47:14.699Z,100.00
2018-09-12T02:49:44.629Z,99.92
2018-09-12T02:52:13.858Z,100.00
2018-09-12T02:54:43.133Z,100.00
2018-09-12T02:57:12.414Z,100.00
2018-09-12T02:59:41.661Z,100.00
2018-09-12T03:02:11.284Z,100.00
2018-09-12T03:04:40.530Z,100.00
2018-09-12T03:07:09.772Z,100.00
2018-09-12T03:09:38.960Z,100.00
2018-09-12T03:12:08.090Z,100.00
2018-09-12T03:14:37.242Z,100.00
2018-09-12T03:17:06.456Z,100.00
2018-09-12T03:19:35.705Z,100.00
2018-09-12T03:22:05.012Z,100.00
2018-09-12T03:24:34.428Z,100.00
2018-09-12T03:27:03.656Z,100.00
2018-09-12T03:29:32.868Z,100.00
2018-09-12T03:32:02.348Z,100.00
2018-09-12T03:34:31.489Z,100.00
2018-09-12T03:37:01.051Z,100.00
2018-09-12T03:39:30.182Z,100.00
2018-09-12T03:41:59.384Z,100.00
2018-09-12T03:44:28.505Z,100.00
2018-09-12T03:46:57.657Z,100.00
2018-09-12T03:49:26.846Z,100.00
2018-09-12T03:51:55.992Z,100.00
2018-09-12T03:54:25.128Z,100.00
2018-09-12T03:56:54.514Z,100.00
2018-09-12T03:59:23.784Z,100.00
2018-09-12T04:01:53.054Z,100.00
2018-09-12T04:04:22.261Z,100.00
2018-09-12T04:06:51.499Z,100.00
2018-09-12T04:09:20.676Z,100.00
2018-09-12T04:11:49.923Z,100.00
2018-09-12T04:14:19.088Z,100.00
2018-09-12T04:16:48.325Z,100.00
2018-09-12T04:19:17.421Z,100.00
2018-09-12T04:21:46.641Z,100.00
2018-09-12T04:24:15.907Z,100.00
2018-09-12T04:26:45.202Z,100.00
2018-09-12T04:29:14.398Z,100.00
2018-09-12T04:31:43.694Z,100.00
2018-09-12T04:34:12.949Z,100.00
2018-09-12T04:36:42.113Z,100.00
2018-09-12T04:39:12.648Z,100.00
2018-09-12T04:41:41.851Z,100.00
2018-09-12T04:44:11.044Z,100.00
2018-09-12T04:46:40.249Z,100.00
2018-09-12T04:49:09.663Z,100.00
2018-09-12T04:51:38.870Z,100.00
2018-09-12T04:54:08.239Z,100.00
2018-09-12T04:56:37.373Z,100.00
2018-09-12T04:59:06.613Z,100.00
2018-09-12T05:01:35.829Z,100.00
2018-09-12T05:04:05.118Z,100.00
2018-09-12T05:06:34.288Z,100.00
2018-09-12T05:09:03.916Z,100.00
2018-09-12T05:11:33.140Z,100.00
2018-09-12T05:14:02.349Z,100.00
2018-09-12T05:16:31.633Z,100.00
2018-09-12T05:19:00.856Z,100.00
2018-09-12T05:21:30.123Z,100.00
2018-09-12T05:23:59.371Z,100.00
2018-09-12T05:26:28.577Z,100.00
2018-09-12T05:28:57.828Z,100.00
2018-09-12T05:31:27.029Z,100.00
2018-09-12T05:33:56.217Z,100.00
2018-09-12T05:36:25.491Z,100.00
2018-09-12T05:38:54.669Z,100.00
2018-09-12T05:41:23.914Z,100.00
2018-09-12T05:43:53.067Z,100.00
2018-09-12T05:46:22.249Z,100.00
2018-09-12T05:48:51.453Z,100.00
2018-09-12T05:51:20.853Z,100.00
2018-09-12T05:53:50.042Z,99.73
2018-09-12T05:56:19.236Z,99.77
2018-09-12T05:58:48.481Z,99.37
2018-09-12T06:01:17.615Z,99.19
2018-09-12T06:03:46.744Z,98.50
2018-09-12T06:06:16.042Z,97.36
2018-09-12T06:08:45.240Z,96.83
2018-09-12T06:11:14.511Z,95.83
2018-09-12T06:13:43.742Z,95.23
2018-09-12T06:16:12.931Z,94.78
2018-09-12T06:18:42.306Z,95.34
2018-09-12T06:21:11.482Z,94.78
2018-09-12T06:23:40.653Z,94.48
2018-09-12T06:26:10.170Z,94.03
2018-09-12T06:28:40.944Z,93.01
2018-09-12T06:31:11.844Z,92.65
2018-09-12T06:33:42.021Z,93.05
2018-09-12T06:36:11.185Z,93.33
2018-09-12T06:38:40.358Z,93.32
2018-09-12T06:41:09.773Z,92.76
2018-09-12T06:43:38.958Z,92.13
2018-09-12T06:46:08.156Z,91.81
2018-09-12T06:48:37.411Z,91.40
2018-09-12T06:51:06.682Z,91.78
2018-09-12T06:53:35.821Z,93.15
2018-09-12T06:56:05.062Z,92.58
2018-09-12T06:58:34.301Z,92.04
2018-09-12T07:01:03.640Z,91.86
2018-09-12T07:03:33.393Z,90.16
2018-09-12T07:06:02.581Z,89.71
2018-09-12T07:08:31.796Z,89.57
2018-09-12T07:11:01.004Z,89.45
2018-09-12T07:13:30.376Z,88.58
2018-09-12T07:15:59.668Z,88.62
2018-09-12T07:18:28.952Z,88.08
2018-09-12T07:20:58.104Z,85.94
2018-09-12T07:23:27.369Z,85.18
2018-09-12T07:25:56.585Z,85.11
2018-09-12T07:28:25.820Z,83.83
2018-09-12T07:30:54.984Z,83.66
2018-09-12T07:33:24.233Z,83.35
2018-09-12T07:35:53.442Z,82.75
2018-09-12T07:38:22.734Z,84.05
2018-09-12T07:40:51.936Z,83.78
2018-09-12T07:43:21.213Z,83.38
2018-09-12T07:45:50.604Z,82.21
2018-09-12T07:48:19.918Z,81.50
2018-09-12T07:50:50.241Z,81.09
2018-09-12T07:53:20.047Z,81.23
2018-09-12T07:55:49.390Z,79.45
2018-09-12T07:58:18.561Z,80.35
2018-09-12T08:00:47.905Z,79.18
2018-09-12T08:03:17.098Z,78.22
2018-09-12T08:05:46.340Z,78.61
2018-09-12T08:08:15.642Z,77.06
2018-09-12T08:10:44.872Z,76.65
2018-09-12T08:13:14.179Z,74.66
2018-09-12T08:15:43.769Z,74.84
2018-09-12T08:18:14.726Z,74.31
2018-09-12T08:20:44.018Z,73.32
2018-09-12T08:23:13.411Z,73.76
2018-09-12T08:25:42.701Z,72.87
2018-09-12T08:28:12.529Z,73.31
2018-09-12T08:30:44.658Z,75.06
2018-09-12T08:33:13.975Z,75.11
2018-09-12T08:35:43.186Z,71.75
2018-09-12T08:38:12.413Z,70.78
2018-09-12T08:40:41.673Z,71.57
2018-09-12T08:43:10.958Z,69.58
2018-09-12T08:45:40.328Z,68.84
2018-09-12T08:48:09.587Z,68.89
2018-09-12T08:50:38.780Z,68.32
2018-09-12T08:53:08.892Z,68.26
2018-09-12T08:55:38.214Z,65.33
2018-09-12T08:58:07.493Z,64.09
2018-09-12T09:00:36.801Z,64.95
2018-09-12T09:03:07.425Z,67.01
2018-09-12T09:05:36.658Z,65.16
2018-09-12T09:08:05.848Z,64.25
2018-09-12T09:10:35.170Z,64.22
2018-09-12T09:13:04.321Z,64.59
2018-09-12T09:15:33.498Z,64.02
2018-09-12T09:18:02.970Z,61.75
2018-09-12T09:20:32.290Z,62.91
2018-09-12T09:23:01.502Z,62.41
2018-09-12T09:25:31.435Z,59.67
2018-09-12T09:28:00.786Z,59.67
2018-09-12T09:30:31.894Z,58.04
2018-09-12T09:33:01.173Z,55.80
2018-09-12T09:35:31.265Z,53.60
2018-09-12T09:38:01.076Z,55.91
2018-09-12T09:40:30.312Z,52.55
2018-09-12T09:42:59.578Z,53.08
2018-09-12T09:45:28.922Z,53.43
2018-09-12T09:47:58.275Z,52.29
2018-09-12T09:50:27.478Z,52.46
2018-09-12T09:52:56.630Z,54.33
2018-09-12T09:55:25.862Z,52.84
2018-09-12T09:57:55.329Z,56.04
2018-09-12T10:00:29.962Z,52.06
2018-09-12T10:03:04.571Z,52.73
2018-09-12T10:05:39.060Z,51.83
2018-09-12T10:09:11.964Z,53.23
2018-09-12T10:11:41.319Z,51.66
2018-09-12T10:14:10.636Z,51.43
2018-09-12T10:16:39.913Z,53.46
2018-09-12T10:19:09.349Z,54.21
2018-09-12T10:21:38.619Z,52.01
2018-09-12T10:24:07.846Z,49.42
2018-09-12T10:26:37.130Z,51.23
2018-09-12T10:29:06.578Z,49.40
2018-09-12T10:31:35.810Z,49.67
2018-09-12T10:34:05.116Z,49.44
2018-09-12T10:36:34.359Z,50.07
2018-09-12T10:39:03.698Z,48.32
2018-09-12T10:41:33.101Z,48.29
2018-09-12T10:44:02.417Z,51.10
2018-09-12T10:46:31.594Z,46.09
2018-09-12T10:49:01.406Z,46.58
2018-09-12T10:51:30.516Z,46.28
2018-09-12T10:53:59.952Z,46.61
2018-09-12T10:56:29.537Z,48.48
2018-09-12T10:58:58.964Z,47.05
2018-09-12T11:01:28.101Z,44.86
2018-09-12T11:03:57.399Z,45.85
2018-09-12T11:06:26.675Z,45.07
2018-09-12T11:08:55.998Z,42.37
2018-09-12T11:11:25.268Z,43.48
2018-09-12T11:13:54.496Z,43.10
2018-09-12T11:16:23.732Z,43.91
2018-09-12T11:18:53.113Z,43.03
2018-09-12T11:21:22.441Z,45.36
2018-09-12T11:23:51.815Z,44.05
2018-09-12T11:26:21.161Z,46.57
2018-09-12T11:28:50.815Z,41.90
2018-09-12T11:31:19.999Z,42.41
2018-09-12T11:33:49.339Z,42.04
2018-09-12T11:36:19.554Z,43.05
2018-09-12T11:38:48.809Z,42.32
2018-09-12T11:41:18.152Z,42.78
2018-09-12T11:43:47.357Z,40.26
2018-09-12T11:46:16.555Z,40.80
2018-09-12T11:48:45.852Z,38.45
2018-09-12T11:51:15.096Z,39.11
2018-09-12T11:53:44.370Z,40.02
2018-09-12T11:56:13.675Z,40.76
2018-09-12T11:58:42.922Z,41.34
2018-09-12T12:01:12.146Z,39.39
2018-09-12T12:03:41.425Z,40.16
2018-09-12T12:06:10.938Z,38.69
2018-09-12T12:08:40.269Z,39.02
2018-09-12T12:11:10.141Z,39.71
2018-09-12T12:13:39.314Z,38.45
2018-09-12T12:16:08.551Z,37.98
2018-09-12T12:18:37.754Z,38.31
2018-09-12T12:21:07.186Z,36.84
2018-09-12T12:23:36.442Z,38.25
2018-09-12T12:26:06.021Z,38.16
2018-09-12T12:28:35.249Z,38.27
2018-09-12T12:31:04.590Z,38.52
2018-09-12T12:33:33.793Z,38.71
2018-09-12T12:36:03.181Z,37.76
2018-09-12T12:38:32.583Z,38.04
2018-09-12T12:41:01.889Z,37.90
2018-09-12T12:43:31.217Z,36.32
2018-09-12T12:46:00.516Z,35.32
2018-09-12T12:48:29.693Z,37.46
2018-09-12T12:50:58.924Z,38.21
2018-09-12T12:53:28.053Z,38.04
2018-09-12T12:55:57.453Z,36.13
2018-09-12T12:58:26.762Z,36.64
2018-09-12T13:00:56.444Z,36.32
2018-09-12T13:03:25.716Z,39.43
2018-09-12T13:05:54.992Z,34.55
2018-09-12T13:08:24.273Z,33.40
2018-09-12T13:10:53.539Z,33.68
2018-09-12T13:13:22.740Z,33.89
2018-09-12T13:15:52.320Z,35.14
2018-09-12T13:18:22.189Z,37.90
2018-09-12T13:20:51.597Z,37.53
2018-09-12T13:23:20.823Z,35.15
2018-09-12T13:25:50.014Z,35.48
2018-09-12T13:28:22.380Z,34.26
2018-09-12T13:30:51.633Z,33.90
2018-09-12T13:33:20.967Z,35.87
2018-09-12T13:35:50.204Z,35.32
2018-09-12T13:38:19.487Z,33.87
2018-09-12T13:40:49.125Z,35.04
2018-09-12T13:43:18.650Z,33.79
2018-09-12T13:45:47.960Z,35.48
2018-09-12T13:48:18.838Z,35.49
2018-09-12T13:50:48.003Z,34.42
2018-09-12T13:53:17.237Z,35.28
2018-09-12T13:55:46.593Z,35.41
2018-09-12T13:58:15.842Z,35.25
2018-09-12T14:00:47.505Z,35.27
2018-09-12T14:03:16.735Z,36.12
2018-09-12T14:05:45.993Z,35.24
2018-09-12T14:08:15.318Z,36.25
2018-09-12T14:10:45.470Z,38.09
2018-09-12T14:13:14.681Z,38.25
2018-09-12T14:15:43.989Z,37.63
2018-09-12T14:18:13.212Z,38.31
2018-09-12T14:20:42.397Z,38.00
2018-09-12T14:23:11.707Z,38.83
2018-09-12T14:25:40.929Z,38.27
2018-09-12T14:28:10.259Z,36.98
2018-09-12T14:30:39.821Z,37.69
2018-09-12T14:33:09.212Z,38.05
2018-09-12T14:35:38.728Z,38.34
2018-09-12T14:38:08.021Z,39.04
2018-09-12T14:40:37.333Z,39.49
2018-09-12T14:43:06.837Z,39.29
2018-09-12T14:45:36.054Z,39.60
2018-09-12T14:48:05.305Z,39.16
2018-09-12T14:50:34.559Z,38.93
2018-09-12T14:53:03.729Z,41.15
2018-09-12T14:55:32.884Z,39.16
2018-09-12T14:58:02.120Z,38.71
2018-09-12T15:00:31.250Z,38.19
2018-09-12T15:03:00.957Z,39.69
2018-09-12T15:05:30.371Z,40.37
2018-09-12T15:07:59.613Z,39.85
2018-09-12T15:10:28.808Z,40.20
2018-09-12T15:12:58.268Z,39.27
2018-09-12T15:15:27.615Z,40.46
2018-09-12T15:17:56.921Z,40.14
2018-09-12T15:20:26.408Z,40.62
2018-09-12T15:22:55.613Z,40.21
2018-09-12T15:25:24.833Z,41.26
2018-09-12T15:27:54.042Z,39.93
2018-09-12T15:30:24.243Z,39.57
2018-09-12T15:32:53.565Z,39.24
2018-09-12T15:35:22.794Z,38.69
2018-09-12T15:37:52.182Z,38.49
2018-09-12T15:40:21.440Z,37.84
2018-09-12T15:42:50.659Z,38.06
2018-09-12T15:45:20.063Z,38.73
2018-09-12T15:47:49.311Z,38.38
2018-09-12T15:50:18.532Z,38.28
2018-09-12T15:52:47.836Z,38.28
2018-09-12T15:55:17.033Z,38.46
2018-09-12T15:57:46.204Z,37.21
2018-09-12T16:00:15.508Z,36.85
2018-09-12T16:02:44.741Z,37.26
2018-09-12T16:05:14.718Z,37.37
2018-09-12T16:07:44.123Z,38.76
2018-09-12T16:10:13.957Z,37.54
2018-09-12T16:12:43.287Z,37.47
2018-09-12T16:15:12.660Z,38.83
2018-09-12T16:17:41.830Z,38.63
2018-09-12T16:20:11.177Z,39.06
2018-09-12T16:22:40.384Z,40.70
2018-09-12T16:25:10.091Z,41.26
2018-09-12T16:27:39.997Z,41.18
2018-09-12T16:30:09.608Z,41.29
2018-09-12T16:32:38.881Z,41.60
2018-09-12T16:35:08.142Z,42.31
2018-09-12T16:37:37.876Z,42.53
2018-09-12T16:40:07.284Z,42.95
2018-09-12T16:42:36.473Z,43.35
2018-09-12T16:45:07.277Z,43.47
2018-09-12T16:47:36.558Z,43.30
2018-09-12T16:50:06.268Z,43.54
2018-09-12T16:52:35.551Z,44.06
2018-09-12T16:55:05.499Z,43.95
2018-09-12T16:57:34.806Z,44.73
2018-09-12T17:00:04.074Z,44.87
2018-09-12T17:02:33.275Z,44.33
2018-09-12T17:05:02.869Z,45.38
2018-09-12T17:07:32.233Z,44.58
2018-09-12T17:10:01.523Z,45.83
2018-09-12T17:12:30.668Z,45.72
2018-09-12T17:14:59.934Z,46.57
2018-09-12T17:17:29.159Z,47.27
2018-09-12T17:19:58.366Z,48.13
2018-09-12T17:22:27.650Z,47.69
2018-09-12T17:24:57.332Z,49.53
2018-09-12T17:27:27.299Z,49.53
2018-09-12T17:29:57.245Z,50.34
2018-09-12T17:32:26.557Z,50.93
2018-09-12T17:34:56.580Z,51.22
2018-09-12T17:37:25.939Z,52.31
2018-09-12T17:39:55.201Z,53.42
2018-09-12T17:42:24.448Z,55.86
2018-09-12T17:44:53.970Z,55.87
2018-09-12T17:47:23.302Z,57.27
2018-09-12T17:49:52.563Z,57.70
2018-09-12T17:52:21.837Z,58.41
2018-09-12T17:54:51.184Z,60.78
2018-09-12T17:57:20.476Z,62.48
2018-09-12T17:59:49.785Z,63.96
2018-09-12T18:02:19.053Z,64.94
2018-09-12T18:04:48.802Z,66.69
2018-09-12T18:07:18.554Z,67.33
2018-09-12T18:09:47.755Z,67.39
2018-09-12T18:12:17.145Z,69.31
2018-09-12T18:14:46.465Z,69.32
2018-09-12T18:17:15.910Z,70.35
2018-09-12T18:19:45.208Z,70.42
2018-09-12T18:22:14.700Z,71.91
2018-09-12T18:24:43.977Z,72.40
2018-09-12T18:27:13.149Z,72.81
2018-09-12T18:29:42.474Z,73.06
2018-09-12T18:32:11.694Z,72.82
2018-09-12T18:34:40.840Z,72.67
2018-09-12T18:37:11.131Z,73.15
2018-09-12T18:39:40.317Z,73.45
2018-09-12T18:42:09.840Z,73.87
2018-09-12T18:44:39.444Z,74.33
2018-09-12T18:47:08.745Z,74.08
2018-09-12T18:49:37.967Z,74.32
2018-09-12T18:52:07.146Z,74.34
2018-09-12T18:54:36.295Z,74.28
2018-09-12T18:57:06.156Z,74.23
2018-09-12T18:59:35.351Z,75.17
2018-09-12T19:02:04.474Z,74.63
2018-09-12T19:04:33.621Z,75.22
2018-09-12T19:07:02.950Z,74.80
2018-09-12T19:09:32.030Z,74.47
2018-09-12T19:12:01.184Z,74.79
2018-09-12T19:14:30.445Z,75.64
2018-09-12T19:16:59.635Z,76.01
2018-09-12T19:19:28.801Z,75.89
2018-09-12T19:21:58.014Z,76.70
2018-09-12T19:24:27.220Z,76.67
2018-09-12T19:26:56.409Z,76.47
2018-09-12T19:29:25.609Z,76.87
2018-09-12T19:31:54.905Z,77.05
2018-09-12T19:34:24.132Z,77.01
2018-09-12T19:36:53.340Z,77.49
2018-09-12T19:39:22.531Z,77.74
2018-09-12T19:41:51.879Z,77.48
2018-09-12T19:44:21.095Z,76.67
2018-09-12T19:46:50.275Z,76.92
2018-09-12T19:49:19.454Z,77.67
2018-09-12T19:51:48.697Z,78.10
2018-09-12T19:54:17.891Z,78.35
2018-09-12T19:56:47.115Z,78.25
2018-09-12T19:59:16.498Z,78.29
2018-09-12T20:01:45.716Z,78.30
2018-09-12T20:04:14.852Z,78.69
2018-09-12T20:06:44.015Z,78.53
2018-09-12T20:09:13.169Z,78.55
2018-09-12T20:11:42.379Z,78.35
2018-09-12T20:14:11.726Z,78.73
2018-09-12T20:16:40.886Z,78.84
2018-09-12T20:19:10.809Z,79.44
2018-09-12T20:21:40.064Z,79.45
2018-09-12T20:24:09.461Z,80.89
2018-09-12T20:26:38.696Z,81.09
2018-09-12T20:29:08.231Z,81.44
2018-09-12T20:31:37.405Z,81.05
2018-09-12T20:34:06.739Z,81.34
2018-09-12T20:36:35.914Z,81.50
2018-09-12T20:39:08.471Z,82.20
2018-09-12T20:41:37.642Z,81.60
2018-09-12T20:44:06.929Z,82.15
2018-09-12T20:46:36.123Z,81.66
2018-09-12T20:49:05.324Z,82.19
2018-09-12T20:51:34.523Z,82.08
2018-09-12T20:54:03.740Z,82.15
2018-09-12T20:56:32.949Z,81.53
2018-09-12T20:59:02.102Z,81.63
2018-09-12T21:01:31.287Z,81.71
2018-09-12T21:04:00.460Z,82.30
2018-09-12T21:06:31.057Z,82.03
2018-09-12T21:09:00.225Z,82.00
2018-09-12T21:11:29.720Z,81.89
2018-09-12T21:13:58.870Z,82.49
2018-09-12T21:16:28.102Z,82.72
2018-09-12T21:18:58.117Z,83.13
2018-09-12T21:21:27.293Z,83.13
2018-09-12T21:23:56.465Z,82.89
2018-09-12T21:26:25.868Z,83.63
2018-09-12T21:28:55.149Z,83.26
2018-09-12T21:31:24.334Z,83.95
2018-09-12T21:33:53.869Z,83.79
2018-09-12T21:36:23.389Z,84.32
2018-09-12T21:38:52.747Z,84.40
2018-09-12T21:41:22.025Z,83.82
2018-09-12T21:43:51.314Z,84.06
2018-09-12T21:46:20.437Z,84.60
2018-09-12T21:48:49.979Z,83.89
2018-09-12T21:51:19.123Z,84.58
2018-09-12T21:53:48.288Z,84.69
2018-09-12T21:56:17.701Z,85.15
2018-09-12T21:58:46.877Z,85.84
2018-09-12T22:01:19.656Z,86.63
2018-09-12T22:03:48.792Z,86.47
2018-09-12T22:06:17.977Z,86.32
2018-09-12T22:08:47.176Z,86.27
2018-09-12T22:11:16.352Z,86.48
2018-09-12T22:13:45.504Z,86.82
2018-09-12T22:16:14.700Z,86.53
2018-09-12T22:18:43.817Z,87.01
2018-09-12T22:21:13.049Z,88.09
2018-09-12T22:23:42.318Z,87.64
2018-09-12T22:26:11.554Z,87.89
2018-09-12T22:28:41.599Z,87.49
2018-09-12T22:31:11.545Z,88.31
2018-09-12T22:33:40.679Z,87.63
2018-09-12T22:36:09.853Z,87.87
2018-09-12T22:38:39.018Z,88.11
2018-09-12T22:41:08.412Z,88.09
2018-09-12T22:43:37.628Z,88.84
2018-09-12T22:46:06.853Z,89.16
2018-09-12T22:48:36.009Z,88.53
2018-09-12T22:51:09.285Z,88.44
2018-09-12T22:53:39.198Z,88.52
2018-09-12T22:56:08.457Z,89.03
2018-09-12T22:58:37.632Z,88.63
2018-09-12T23:01:06.836Z,88.83
2018-09-12T23:03:35.992Z,88.85
2018-09-12T23:06:05.237Z,88.46
2018-09-12T23:08:34.793Z,89.35
2018-09-12T23:11:03.986Z,89.02
2018-09-12T23:13:33.200Z,89.28
2018-09-12T23:16:02.354Z,89.87
2018-09-12T23:18:31.494Z,89.99
2018-09-12T23:21:00.653Z,89.96
2018-09-12T23:23:29.778Z,90.26
2018-09-12T23:25:58.969Z,90.27
2018-09-12T23:28:28.261Z,90.94
2018-09-12T23:30:57.485Z,90.68
2018-09-12T23:33:26.829Z,91.35
2018-09-12T23:35:56.057Z,92.15
2018-09-12T23:38:26.207Z,92.68
2018-09-12T23:40:55.405Z,92.27
2018-09-12T23:43:24.635Z,92.09
2018-09-12T23:45:53.868Z,91.84
2018-09-12T23:48:23.051Z,91.87
2018-09-12T23:50:52.224Z,92.65
2018-09-12T23:53:21.404Z,92.38
2018-09-12T23:55:50.576Z,91.94
2018-09-12T23:58:19.749Z,92.42
